Time;durP1;ratioP1;P1;durP2;ratioP2;P2;SDS_P1;SDS_P2;PMS_P1;PMS_P2;Temp;Humidity;BMP_temperature;BMP_pressure;BME280_temperature;BME280_humidity;BME280_pressure;Samples;Min_cycle;Max_cycle;Signal;HPM_P1;HPM_P2
2021/06/01 00:00:06;;;;;;;10.82;6.90;;;16.80;99.90;;;;;;6185046;23;20356;-79
2021/06/01 00:02:33;;;;;;;9.70;6.85;;;16.70;99.90;;;;;;6184353;23;20506;-79
2021/06/01 00:04:59;;;;;;;8.60;6.30;;;16.70;99.90;;;;;;6184375;23;20057;-79
2021/06/01 00:07:26;;;;;;;7.45;5.82;;;16.60;99.90;;;;;;6185739;23;20029;-79
2021/06/01 00:09:52;;;;;;;8.07;6.47;;;16.50;99.90;;;;;;6186029;23;20359;-79
2021/06/01 00:12:18;;;;;;;8.10;5.80;;;16.50;99.90;;;;;;6186606;23;20075;-80
2021/06/01 00:14:46;;;;;;;8.02;5.68;;;16.50;99.90;;;;;;6188239;23;20119;-80
2021/06/01 00:17:13;;;;;;;10.38;5.75;;;16.50;99.90;;;;;;6190648;23;20132;-81
2021/06/01 00:19:40;;;;;;;6.68;5.63;;;16.50;99.90;;;;;;6191259;23;20118;-81
2021/06/01 00:43:17;;;;;;;6.97;5.00;;;16.10;99.90;;;;;;5818848;24;20031;-80
2021/06/01 00:46:09;;;;;;;6.53;5.18;;;16.00;99.90;;;;;;6102690;23;20021;-80
2021/06/01 00:48:40;;;;;;;6.95;5.38;;;16.00;99.90;;;;;;6159977;23;20124;-80
2021/06/01 00:51:32;;;;;;;8.77;5.63;;;16.10;99.90;;;;;;6159388;23;20021;-79
2021/06/01 00:54:03;;;;;;;6.55;5.18;;;16.00;99.90;;;;;;6158325;23;20025;-78
2021/06/01 00:56:33;;;;;;;7.65;5.75;;;16.00;99.90;;;;;;6159357;23;20444;-80
2021/06/01 00:59:01;;;;;;;6.68;5.47;;;16.00;99.90;;;;;;6158426;23;20053;-79
2021/06/01 01:01:28;;;;;;;8.07;5.80;;;16.00;99.90;;;;;;6157691;23;20026;-79
2021/06/01 01:03:56;;;;;;;7.30;5.80;;;16.00;99.90;;;;;;6157630;23;20022;-80
2021/06/01 01:06:45;;;;;;;7.10;5.60;;;16.00;99.90;;;;;;6157810;23;20468;-80
2021/06/01 01:09:14;;;;;;;7.05;5.63;;;16.00;99.90;;;;;;6153527;23;20357;-78
2021/06/01 01:12:11;;;;;;;6.45;5.38;;;15.90;99.90;;;;;;6155014;23;20021;-79
2021/06/01 01:14:47;;;;;;;6.78;5.43;;;15.80;99.90;;;;;;6155143;23;20031;-79
2021/06/01 01:17:18;;;;;;;9.07;5.45;;;15.70;99.90;;;;;;6155615;23;20025;-80
2021/06/01 01:19:57;;;;;;;7.13;5.40;;;15.60;99.90;;;;;;6160240;23;20464;-81
2021/06/01 01:22:24;;;;;;;7.07;5.13;;;15.50;99.90;;;;;;6161594;23;20312;-81
2021/06/01 01:24:54;;;;;;;9.15;5.53;;;15.50;99.90;;;;;;6160901;23;20454;-81
2021/06/01 01:27:32;;;;;;;10.15;5.53;;;15.50;99.90;;;;;;6162968;23;20022;-80
2021/06/01 01:30:04;;;;;;;7.15;5.10;;;15.40;99.90;;;;;;6159525;23;20025;-79
2021/06/01 01:32:35;;;;;;;8.13;4.90;;;15.30;99.90;;;;;;6158698;23;20045;-79
2021/06/01 01:35:05;;;;;;;6.00;5.28;;;15.30;99.90;;;;;;6158322;23;20250;-79
2021/06/01 01:37:34;;;;;;;6.47;5.38;;;15.30;99.90;;;;;;6158501;23;20052;-79
2021/06/01 01:40:04;;;;;;;8.73;5.00;;;15.20;99.90;;;;;;6157350;23;20037;-79
2021/06/01 01:42:40;;;;;;;7.07;4.85;;;15.10;99.90;;;;;;6157795;23;20483;-79
2021/06/01 01:45:09;;;;;;;7.38;5.20;;;15.10;99.90;;;;;;6156777;23;20025;-80
2021/06/01 01:50:22;;;;;;;5.90;4.88;;;15.00;99.90;;;;;;6155262;23;20410;-77
2021/06/01 01:52:50;;;;;;;6.97;4.65;;;15.00;99.90;;;;;;6154678;23;20021;-78
2021/06/01 01:55:17;;;;;;;6.53;5.10;;;15.00;99.90;;;;;;6156189;23;20456;-80
2021/06/01 01:57:46;;;;;;;5.93;4.75;;;15.00;99.90;;;;;;6156390;23;20053;-81
2021/06/01 02:00:15;;;;;;;8.38;5.18;;;15.00;99.90;;;;;;6155534;23;20096;-78
2021/06/01 02:02:42;;;;;;;6.43;4.80;;;14.90;99.90;;;;;;6155537;23;20040;-80
2021/06/01 02:05:12;;;;;;;6.07;4.75;;;15.00;99.90;;;;;;6155026;23;20025;-80
2021/06/01 02:07:40;;;;;;;6.85;4.57;;;15.00;99.90;;;;;;6155490;23;20048;-77
2021/06/01 02:10:09;;;;;;;8.20;4.90;;;14.90;99.90;;;;;;6168795;23;20060;-79
2021/06/01 02:12:36;;;;;;;8.57;4.93;;;14.90;99.90;;;;;;6176004;23;20032;-77
2021/06/01 02:15:05;;;;;;;7.68;4.80;;;14.90;99.90;;;;;;6174408;23;20083;-79
2021/06/01 02:17:31;;;;;;;9.48;5.07;;;14.90;99.90;;;;;;6156196;23;20049;-78
2021/06/01 02:19:57;;;;;;;6.32;4.78;;;14.90;99.90;;;;;;6154539;23;20049;-78
2021/06/01 02:23:47;;;;;;;6.07;5.00;;;14.80;99.90;;;;;;6154410;23;20036;-78
2021/06/01 02:25:32;;;;;;;6.38;5.07;;;14.80;99.90;;;;;;6153763;23;20022;-78
2021/06/01 02:28:03;;;;;;;5.20;4.70;;;14.80;99.90;;;;;;6154562;23;20435;-78
2021/06/01 02:30:33;;;;;;;6.68;4.57;;;14.80;99.90;;;;;;6153977;23;20025;-78
2021/06/01 02:33:02;;;;;;;7.13;4.82;;;14.80;99.90;;;;;;6154113;23;20060;-78
2021/06/01 02:35:33;;;;;;;7.38;5.18;;;14.70;99.90;;;;;;6153614;23;20048;-78
2021/06/01 02:38:02;;;;;;;6.88;4.97;;;14.70;99.90;;;;;;6153672;23;20024;-78
2021/06/01 02:40:31;;;;;;;5.47;4.82;;;14.70;99.90;;;;;;6153733;23;20486;-78
2021/06/01 02:43:00;;;;;;;5.75;4.70;;;14.60;99.90;;;;;;6153516;23;20049;-78
2021/06/01 02:45:28;;;;;;;9.27;5.30;;;14.50;99.90;;;;;;6153828;23;20025;-78
2021/06/01 02:47:55;;;;;;;10.32;5.25;;;14.50;99.90;;;;;;6154238;23;20013;-78
2021/06/01 02:50:25;;;;;;;7.55;5.18;;;14.30;99.90;;;;;;6154032;23;20036;-77
2021/06/01 02:52:51;;;;;;;7.03;5.43;;;14.30;99.90;;;;;;6153814;23;20061;-78
2021/06/01 02:55:20;;;;;;;5.95;4.72;;;14.20;99.90;;;;;;6153603;23;20068;-77
2021/06/01 02:57:48;;;;;;;9.52;5.40;;;14.10;99.90;;;;;;6153814;23;20021;-78
2021/06/01 03:00:17;;;;;;;6.18;4.85;;;14.10;99.90;;;;;;6154167;23;20368;-79
2021/06/01 03:02:44;;;;;;;7.10;5.10;;;14.10;99.90;;;;;;6154124;23;20107;-78
2021/06/01 03:05:13;;;;;;;5.47;4.55;;;14.10;99.90;;;;;;6153652;23;20052;-79
2021/06/01 03:07:39;;;;;;;7.18;5.00;;;14.10;99.90;;;;;;6154461;23;20064;-78
2021/06/01 03:10:09;;;;;;;10.52;5.00;;;14.10;99.90;;;;;;6154537;23;20025;-80
2021/06/01 03:12:41;;;;;;;9.50;4.82;;;14.10;99.90;;;;;;6155632;23;20075;-77
2021/06/01 03:15:12;;;;;;;8.88;4.63;;;14.10;99.90;;;;;;6154337;23;20139;-78
2021/06/01 03:17:41;;;;;;;8.52;5.20;;;14.10;99.90;;;;;;6154867;23;20030;-80
2021/06/01 03:20:09;;;;;;;5.90;4.88;;;14.10;99.90;;;;;;6155323;23;20031;-77
2021/06/01 03:22:41;;;;;;;7.45;4.90;;;14.10;99.90;;;;;;6153326;23;20029;-78
2021/06/01 03:25:17;;;;;;;6.78;5.10;;;14.10;99.90;;;;;;6153239;23;20480;-78
2021/06/01 03:28:14;;;;;;;6.88;5.43;;;14.00;99.90;;;;;;6154193;23;20018;-78
2021/06/01 03:30:50;;;;;;;7.72;5.80;;;14.00;99.90;;;;;;6154294;23;20021;-78
2021/06/01 03:50:52;;;;;;;7.63;5.63;;;13.90;99.90;;;;;;6079364;23;20357;-78
2021/06/01 03:53:48;;;;;;;7.03;5.35;;;13.80;99.90;;;;;;6153909;23;20079;-80
2021/06/01 03:56:51;;;;;;;9.98;5.38;;;13.90;99.90;;;;;;6156651;23;20511;-79
2021/06/01 03:59:18;;;;;;;9.02;5.32;;;14.00;99.90;;;;;;6151774;23;20025;-78
2021/06/01 04:01:44;;;;;;;7.65;5.03;;;14.10;99.90;;;;;;6155219;23;20372;-78
2021/06/01 04:04:12;;;;;;;7.45;5.43;;;14.50;99.90;;;;;;6155148;23;20167;-78
2021/06/01 04:06:41;;;;;;;6.65;5.20;;;15.20;99.90;;;;;;6155199;23;20025;-78
2021/06/01 04:09:08;;;;;;;8.88;5.28;;;16.00;99.90;;;;;;6155849;23;20022;-78
2021/06/01 04:11:34;;;;;;;8.18;5.53;;;16.80;99.90;;;;;;6155705;23;20395;-79
2021/06/01 04:14:01;;;;;;;7.22;5.28;;;17.50;99.90;;;;;;6155312;23;20053;-78
2021/06/01 04:16:28;;;;;;;7.25;5.32;;;18.20;99.90;;;;;;6155322;23;20480;-77
2021/06/01 04:18:55;;;;;;;7.47;5.65;;;18.60;99.90;;;;;;6155238;23;20042;-78
2021/06/01 04:21:36;;;;;;;9.63;5.70;;;18.80;99.90;;;;;;6155330;23;20476;-78
2021/06/01 04:24:47;;;;;;;7.57;5.03;;;18.70;99.90;;;;;;6150435;23;20173;-78
2021/06/01 04:27:14;;;;;;;7.45;5.43;;;18.90;99.90;;;;;;6155456;23;20134;-78
2021/06/01 04:30:12;;;;;;;6.70;5.30;;;19.40;99.90;;;;;;6155380;23;20076;-79
2021/06/01 04:32:47;;;;;;;7.57;5.40;;;19.90;99.90;;;;;;6155644;23;20036;-77
2021/06/01 04:35:16;;;;;;;8.73;5.30;;;19.90;99.90;;;;;;6155370;23;20026;-78
2021/06/01 04:40:32;;;;;;;8.63;5.68;;;19.50;99.90;;;;;;6155224;23;20040;-78
2021/06/01 04:42:59;;;;;;;9.13;5.47;;;19.30;99.90;;;;;;6155018;23;20040;-79
2021/06/01 04:45:25;;;;;;;8.35;5.47;;;19.20;99.90;;;;;;6156020;23;20371;-78
2021/06/01 04:47:55;;;;;;;7.95;5.38;;;19.10;99.90;;;;;;6155362;23;20060;-79
2021/06/01 04:50:24;;;;;;;9.13;5.60;;;19.10;99.90;;;;;;6154687;23;20329;-77
2021/06/01 04:52:52;;;;;;;8.25;5.63;;;18.90;99.90;;;;;;6154695;23;20480;-78
2021/06/01 04:55:19;;;;;;;7.88;5.35;;;18.60;99.90;;;;;;6156208;23;20053;-79
2021/06/01 04:57:45;;;;;;;9.52;5.63;;;18.50;99.90;;;;;;6156605;23;20178;-79
2021/06/01 05:00:12;;;;;;;9.88;5.57;;;18.40;99.90;;;;;;6155783;23;20389;-79
2021/06/01 05:02:39;;;;;;;6.22;5.28;;;18.30;99.90;;;;;;6155487;23;20033;-79
2021/06/01 05:05:07;;;;;;;6.72;5.53;;;18.20;99.90;;;;;;6154901;23;20104;-79
2021/06/01 05:07:33;;;;;;;12.05;5.40;;;18.20;99.90;;;;;;6155652;23;20097;-79
2021/06/01 05:10:01;;;;;;;7.38;5.50;;;18.10;99.90;;;;;;6155582;23;20026;-78
2021/06/01 05:12:27;;;;;;;6.47;5.72;;;18.10;99.90;;;;;;6155356;23;20026;-79
2021/06/01 05:14:54;;;;;;;6.57;5.20;;;18.10;99.90;;;;;;6154295;23;20049;-78
2021/06/01 05:17:20;;;;;;;9.60;5.20;;;18.20;99.90;;;;;;6154214;23;20064;-76
2021/06/01 05:19:47;;;;;;;8.35;5.35;;;18.80;99.90;;;;;;6155959;23;20075;-79
2021/06/01 05:22:13;;;;;;;10.23;5.50;;;19.50;99.90;;;;;;6155778;23;20156;-79
2021/06/01 05:24:43;;;;;;;9.07;5.53;;;20.10;99.90;;;;;;6155514;23;20057;-79
2021/06/01 05:27:12;;;;;;;7.70;5.40;;;20.80;99.90;;;;;;6155680;23;20041;-79
2021/06/01 05:29:41;;;;;;;6.20;5.18;;;21.30;99.90;;;;;;6155407;23;20037;-80
2021/06/01 05:32:36;;;;;;;7.82;4.90;;;21.70;99.90;;;;;;6155430;23;20065;-77
2021/06/01 05:34:59;;;;;;;8.63;5.30;;;22.10;99.70;;;;;;6154851;23;20021;-79
2021/06/01 05:37:27;;;;;;;7.65;4.85;;;22.30;99.10;;;;;;6155577;23;20021;-79
2021/06/01 05:39:54;;;;;;;8.65;4.70;;;22.30;98.60;;;;;;6155056;23;20523;-79
2021/06/01 05:42:21;;;;;;;10.02;5.43;;;22.70;97.80;;;;;;6156670;23;20476;-80
2021/06/01 05:44:48;;;;;;;12.40;5.07;;;22.80;97.70;;;;;;6156957;23;20049;-80
2021/06/01 05:47:15;;;;;;;6.53;4.38;;;23.20;97.30;;;;;;6157325;23;20057;-79
2021/06/01 05:49:44;;;;;;;7.50;5.15;;;23.20;96.30;;;;;;6156956;23;20021;-81
2021/06/01 05:52:11;;;;;;;5.85;4.88;;;23.30;95.90;;;;;;6157596;23;20032;-79
2021/06/01 05:54:38;;;;;;;6.53;4.65;;;23.50;95.60;;;;;;6156114;23;20026;-78
2021/06/01 05:57:06;;;;;;;7.65;4.95;;;23.70;95.20;;;;;;6156543;23;20026;-78
2021/06/01 05:59:33;;;;;;;7.35;4.90;;;23.80;94.70;;;;;;6155420;23;20025;-80
2021/06/01 06:02:00;;;;;;;8.18;4.75;;;23.90;94.40;;;;;;6154548;23;20105;-79
2021/06/01 06:04:26;;;;;;;6.90;4.82;;;23.90;93.80;;;;;;6154277;23;20447;-78
2021/06/01 06:06:53;;;;;;;8.02;4.95;;;23.90;94.10;;;;;;6155089;23;20048;-78
2021/06/01 06:09:19;;;;;;;7.63;4.75;;;23.70;93.30;;;;;;6153988;23;20516;-78
2021/06/01 06:11:46;;;;;;;8.25;4.65;;;23.60;93.40;;;;;;6154641;23;20053;-77
2021/06/01 06:14:12;;;;;;;6.15;4.57;;;23.60;93.00;;;;;;6154077;23;20032;-78
2021/06/01 06:16:46;;;;;;;6.22;4.40;;;23.30;92.60;;;;;;6155589;23;20072;-77
2021/06/01 06:19:14;;;;;;;5.90;4.40;;;23.40;93.10;;;;;;6157154;23;20041;-78
2021/06/01 06:21:41;;;;;;;6.82;4.57;;;23.60;92.70;;;;;;6156019;23;20072;-78
2021/06/01 06:24:21;;;;;;;8.27;4.28;;;23.90;92.60;;;;;;6155186;23;20026;-78
2021/06/01 06:26:48;;;;;;;8.10;4.65;;;24.20;92.00;;;;;;6155387;23;20025;-78
2021/06/01 06:29:14;;;;;;;6.10;4.82;;;24.20;92.00;;;;;;6157379;23;20191;-77
2021/06/01 06:31:42;;;;;;;5.93;4.60;;;24.30;91.90;;;;;;6155140;23;20025;-78
2021/06/01 06:34:14;;;;;;;6.35;4.53;;;24.90;92.60;;;;;;6153162;23;20057;-78
2021/06/01 06:36:40;;;;;;;;;;;25.30;91.20;;;;;;6155749;23;20096;-77
2021/06/01 06:39:08;;;;;;;10.75;4.40;;;24.80;89.50;;;;;;6170857;23;20287;-79
2021/06/01 06:41:35;;;;;;;10.18;4.65;;;24.60;90.70;;;;;;6183682;23;20060;-80
2021/06/01 06:44:03;;;;;;;5.88;4.32;;;24.70;90.00;;;;;;6183398;23;20025;-79
2021/06/01 06:46:35;;;;;;;6.55;4.68;;;24.70;90.00;;;;;;6185061;23;20025;-79
2021/06/01 06:49:04;;;;;;;7.05;4.32;;;24.60;89.10;;;;;;6183654;23;20049;-80
2021/06/01 06:51:31;;;;;;;5.35;4.57;;;24.10;89.70;;;;;;6183543;23;20380;-79
2021/06/01 06:53:58;;;;;;;7.38;4.93;;;23.90;90.20;;;;;;6184305;23;20029;-79
2021/06/01 06:56:26;;;;;;;6.95;4.75;;;23.70;90.40;;;;;;6183101;23;20067;-78
2021/06/01 06:58:53;;;;;;;6.25;4.32;;;23.80;90.60;;;;;;6184583;23;20025;-79
2021/06/01 07:01:20;;;;;;;6.30;4.75;;;24.00;90.10;;;;;;6184434;23;20036;-79
2021/06/01 07:03:46;;;;;;;7.60;4.82;;;23.90;90.10;;;;;;6184784;23;20036;-79
2021/06/01 07:06:15;;;;;;;9.00;4.88;;;23.80;90.00;;;;;;6184856;23;20316;-78
2021/06/01 07:08:41;;;;;;;6.72;4.80;;;23.90;89.80;;;;;;6184158;23;20056;-77
2021/06/01 07:11:08;;;;;;;6.35;4.70;;;24.40;90.50;;;;;;6187026;23;20071;-80
2021/06/01 07:13:51;;;;;;;8.00;4.90;;;24.40;88.90;;;;;;6188529;23;20044;-79
2021/06/01 07:16:19;;;;;;;7.60;5.20;;;24.50;89.20;;;;;;6189689;23;20032;-80
2021/06/01 07:18:46;;;;;;;7.22;4.75;;;24.20;87.80;;;;;;6182313;23;20017;-79
2021/06/01 07:21:14;;;;;;;8.00;4.72;;;24.50;89.00;;;;;;6185546;23;20043;-79
2021/06/01 07:23:41;;;;;;;6.97;4.82;;;24.60;89.20;;;;;;6184328;23;20031;-79
2021/06/01 07:26:09;;;;;;;7.47;5.00;;;24.80;88.60;;;;;;6186050;23;20025;-78
2021/06/01 07:28:36;;;;;;;8.00;4.93;;;25.10;89.50;;;;;;6182028;23;20021;-78
2021/06/01 07:31:03;;;;;;;6.30;4.80;;;25.60;88.00;;;;;;6183297;23;20072;-79
2021/06/01 07:33:29;;;;;;;7.13;4.80;;;25.30;86.70;;;;;;6183138;23;20103;-80
2021/06/01 07:35:56;;;;;;;7.30;4.68;;;25.00;87.70;;;;;;6186189;23;20392;-80
2021/06/01 07:38:23;;;;;;;9.18;4.70;;;25.30;88.00;;;;;;6182133;23;20108;-78
2021/06/01 07:40:50;;;;;;;6.25;4.68;;;25.40;86.70;;;;;;6185536;23;20052;-80
2021/06/01 07:43:16;;;;;;;7.75;5.13;;;26.00;88.60;;;;;;6188177;23;20056;-78
2021/06/01 07:45:42;;;;;;;6.38;4.57;;;26.50;84.00;;;;;;6182338;23;20083;-79
2021/06/01 07:48:09;;;;;;;7.10;4.80;;;26.40;83.60;;;;;;6181946;23;20024;-79
2021/06/01 07:50:35;;;;;;;6.13;4.53;;;26.80;84.10;;;;;;6180865;23;20056;-78
2021/06/01 07:53:02;;;;;;;6.55;4.80;;;26.80;81.70;;;;;;6182570;23;20060;-78
2021/06/01 07:55:30;;;;;;;7.82;4.78;;;26.60;79.80;;;;;;6183125;23;20021;-78
2021/06/01 07:57:56;;;;;;;6.93;4.72;;;26.20;80.00;;;;;;6181174;23;20105;-78
2021/06/01 08:00:23;;;;;;;6.47;4.57;;;25.70;81.50;;;;;;6180832;23;20025;-77
2021/06/01 08:02:50;;;;;;;8.32;4.68;;;25.40;81.90;;;;;;6182146;23;20036;-77
2021/06/01 08:05:18;;;;;;;8.63;4.80;;;25.60;82.80;;;;;;6184801;23;20025;-79
2021/06/01 08:07:45;;;;;;;7.93;4.70;;;26.10;84.40;;;;;;6182755;23;20277;-76
2021/06/01 08:10:12;;;;;;;6.28;4.90;;;26.70;82.60;;;;;;6181241;23;20021;-77
2021/06/01 08:12:39;;;;;;;9.98;4.55;;;26.80;79.50;;;;;;6181001;23;20471;-77
2021/06/01 08:15:07;;;;;;;6.35;4.63;;;26.60;81.00;;;;;;6184941;23;20045;-79
2021/06/01 08:17:34;;;;;;;6.88;5.10;;;26.40;79.40;;;;;;6182393;23;20024;-77
2021/06/01 08:20:09;;;;;;;7.25;4.78;;;26.70;81.40;;;;;;6181646;23;20406;-78
2021/06/01 08:22:35;;;;;;;5.75;4.60;;;27.10;80.60;;;;;;6181855;23;20504;-78
2021/06/01 08:25:02;;;;;;;6.53;4.45;;;27.10;80.00;;;;;;6181624;23;20025;-77
2021/06/01 08:27:30;;;;;;;7.75;4.80;;;27.40;79.50;;;;;;6183880;23;20495;-77
2021/06/01 08:29:58;;;;;;;5.22;4.43;;;26.90;76.70;;;;;;6183039;23;20018;-76
2021/06/01 08:32:24;;;;;;;8.43;4.80;;;26.70;77.00;;;;;;6183952;23;20068;-77
2021/06/01 08:34:50;;;;;;;7.68;4.60;;;26.70;76.30;;;;;;6183982;23;20021;-77
2021/06/01 08:37:17;;;;;;;7.65;4.47;;;26.40;75.80;;;;;;6183387;23;20523;-77
2021/06/01 08:39:43;;;;;;;5.97;4.82;;;26.40;78.30;;;;;;6182562;23;20017;-77
2021/06/01 08:42:10;;;;;;;6.32;4.10;;;26.50;76.40;;;;;;6183920;23;20036;-77
2021/06/01 08:44:36;;;;;;;9.82;4.13;;;26.80;78.60;;;;;;6182949;23;20056;-76
2021/06/01 08:47:04;;;;;;;5.25;4.40;;;27.00;75.00;;;;;;6183011;23;20056;-77
2021/06/01 08:49:32;;;;;;;4.85;4.32;;;27.30;74.10;;;;;;6181560;23;20096;-76
2021/06/01 08:51:59;;;;;;;7.30;4.10;;;27.30;74.90;;;;;;6183293;23;20096;-76
2021/06/01 08:54:27;;;;;;;5.28;4.22;;;27.60;72.00;;;;;;6182681;23;20093;-77
2021/06/01 08:56:53;;;;;;;4.75;4.22;;;27.10;72.30;;;;;;6184245;23;20374;-77
2021/06/01 08:59:20;;;;;;;6.10;4.50;;;27.20;72.80;;;;;;6182793;23;20029;-76
2021/06/01 09:01:46;;;;;;;8.82;4.20;;;26.90;71.80;;;;;;6183655;23;20044;-77
2021/06/01 09:04:15;;;;;;;5.90;4.18;;;27.10;72.90;;;;;;6183111;23;20077;-76
2021/06/01 09:06:44;;;;;;;6.35;4.07;;;27.30;72.80;;;;;;6182761;23;20049;-76
2021/06/01 09:09:26;;;;;;;9.20;4.22;;;27.40;72.60;;;;;;6181224;23;20025;-75
2021/06/01 09:12:06;;;;;;;8.32;4.38;;;27.50;71.30;;;;;;6182593;23;20100;-77
2021/06/01 09:22:54;;;;;;;4.30;3.80;;;27.40;66.80;;;;;;6182254;23;20075;-77
2021/06/01 09:25:29;;;;;;;5.05;3.85;;;27.30;68.90;;;;;;6182464;23;20411;-77
2021/06/01 09:27:56;;;;;;;7.85;4.20;;;26.90;67.60;;;;;;6182488;23;20021;-77
2021/06/01 09:30:35;;;;;;;6.05;4.10;;;26.50;69.00;;;;;;6181835;23;20052;-78
2021/06/01 09:33:03;;;;;;;4.30;3.60;;;26.20;71.30;;;;;;6182722;23;20355;-76
2021/06/01 09:35:45;;;;;;;6.25;4.38;;;26.50;70.00;;;;;;6181971;23;20111;-76
2021/06/01 09:38:13;;;;;;;5.82;4.10;;;26.40;70.20;;;;;;6181695;23;20021;-75
2021/06/01 09:40:40;;;;;;;4.55;4.07;;;26.40;70.60;;;;;;6182143;23;20071;-75
2021/06/01 09:43:08;;;;;;;6.15;4.22;;;26.30;69.70;;;;;;6182223;23;20025;-77
2021/06/01 09:45:35;;;;;;;6.85;4.10;;;26.30;72.00;;;;;;6183466;23;20056;-77
2021/06/01 09:48:04;;;;;;;6.85;4.07;;;26.30;72.80;;;;;;6182859;23;20107;-77
2021/06/01 09:50:36;;;;;;;6.38;4.20;;;26.80;70.30;;;;;;6182036;23;20474;-78
2021/06/01 09:53:08;;;;;;;5.05;4.32;;;26.50;72.00;;;;;;6182311;23;20119;-78
2021/06/01 09:55:41;;;;;;;5.35;4.00;;;26.40;69.90;;;;;;6183922;23;20036;-76
2021/06/01 09:58:14;;;;;;;4.80;3.90;;;26.10;69.40;;;;;;6184427;23;20017;-76
2021/06/01 10:00:46;;;;;;;4.68;4.18;;;26.20;71.60;;;;;;6187465;23;20036;-75
2021/06/01 10:03:17;;;;;;;5.05;4.00;;;25.90;70.30;;;;;;6184731;23;20025;-76
2021/06/01 10:05:50;;;;;;;5.95;4.00;;;25.70;72.30;;;;;;6184941;23;20104;-78
2021/06/01 10:08:18;;;;;;;5.30;4.18;;;25.70;73.00;;;;;;6182123;23;20021;-78
2021/06/01 10:10:53;;;;;;;7.63;4.00;;;25.40;71.30;;;;;;6182876;23;20032;-77
2021/06/01 10:13:20;;;;;;;6.13;4.20;;;25.40;73.20;;;;;;6182345;23;20458;-76
2021/06/01 10:15:48;;;;;;;7.82;4.10;;;25.60;73.30;;;;;;6182318;23;20108;-76
2021/06/01 10:18:19;;;;;;;5.07;4.22;;;25.60;71.30;;;;;;6181980;23;20100;-77
2021/06/01 10:20:47;;;;;;;4.72;4.18;;;25.40;71.80;;;;;;6181288;23;20032;-75
2021/06/01 10:23:17;;;;;;;5.57;4.00;;;25.30;72.30;;;;;;6181691;23;20108;-75
2021/06/01 10:25:45;;;;;;;5.95;3.92;;;25.20;71.50;;;;;;6182055;23;20093;-75
2021/06/01 10:28:15;;;;;;;4.93;4.32;;;25.10;71.80;;;;;;6182014;23;20024;-75
2021/06/01 10:30:42;;;;;;;6.60;4.32;;;25.20;71.40;;;;;;6182474;23;20059;-75
2021/06/01 10:33:11;;;;;;;6.07;4.28;;;25.20;73.30;;;;;;6182573;23;20032;-75
2021/06/01 10:35:42;;;;;;;5.90;4.25;;;25.40;73.30;;;;;;6182574;23;20351;-74
2021/06/01 10:44:40;;;;;;;6.15;4.22;;;25.10;69.20;;;;;;6185368;23;20032;-77
2021/06/01 10:50:22;;;;;;;6.43;4.43;;;25.10;71.70;;;;;;6184589;23;20028;-75
2021/06/01 10:53:19;;;;;;;6.22;4.35;;;25.30;74.80;;;;;;6181991;23;20037;-75
2021/06/01 10:56:03;;;;;;;4.90;4.05;;;25.40;73.90;;;;;;6178544;23;20028;-77
2021/06/01 10:59:06;;;;;;;5.25;4.10;;;25.50;70.40;;;;;;6183084;23;20063;-77
2021/06/01 11:01:51;;;;;;;6.40;4.70;;;25.40;69.60;;;;;;6183687;23;20021;-77
2021/06/01 11:04:20;;;;;;;5.43;4.07;;;25.10;68.70;;;;;;6182448;23;20021;-78
2021/06/01 11:07:28;;;;;;;4.72;3.92;;;25.00;70.40;;;;;;6181854;23;20021;-78
2021/06/01 11:09:59;;;;;;;5.53;4.30;;;25.10;74.60;;;;;;6181560;23;20066;-74
2021/06/01 11:12:48;;;;;;;4.55;3.85;;;25.20;75.20;;;;;;6182154;23;20021;-77
2021/06/01 11:15:31;;;;;;;6.13;4.05;;;25.20;72.60;;;;;;6183614;23;20081;-76
2021/06/01 11:18:33;;;;;;;5.32;4.35;;;25.20;70.00;;;;;;6181316;23;20025;-76
2021/06/01 11:21:19;;;;;;;4.53;4.05;;;25.20;69.10;;;;;;6182572;23;20032;-77
2021/06/01 11:25:05;;;;;;;5.72;4.20;;;25.20;69.40;;;;;;6182269;23;20025;-76
2021/06/01 11:33:21;;;;;;;4.95;4.00;;;25.20;70.80;;;;;;6182392;23;20193;-77
2021/06/01 11:35:59;;;;;;;8.60;4.00;;;25.40;72.50;;;;;;6181728;23;20025;-76
2021/06/01 11:38:30;;;;;;;6.75;4.15;;;25.50;71.00;;;;;;6180838;23;20040;-77
2021/06/01 11:41:19;;;;;;;5.65;4.22;;;25.40;69.70;;;;;;6180906;23;20021;-75
2021/06/01 11:43:46;;;;;;;4.55;3.88;;;25.40;70.60;;;;;;6180300;23;20021;-76
2021/06/01 11:46:26;;;;;;;5.88;4.00;;;25.40;70.30;;;;;;6180966;23;20456;-78
2021/06/01 11:51:37;;;;;;;6.15;4.20;;;25.60;68.40;;;;;;6181359;23;20023;-77
2021/06/01 11:54:06;;;;;;;4.70;3.72;;;25.70;70.30;;;;;;6180767;23;20053;-78
2021/06/01 12:05:12;;;;;;;4.78;3.95;;;25.70;68.70;;;;;;6179385;23;20035;-77
2021/06/01 12:18:54;;;;;;;6.07;3.90;;;25.50;69.50;;;;;;6182990;23;20075;-76
2021/06/01 12:21:23;;;;;;;6.97;4.05;;;25.70;71.20;;;;;;6183823;23;20052;-74
2021/06/01 12:23:53;;;;;;;5.82;4.03;;;25.80;70.20;;;;;;6183260;23;20410;-75
2021/06/01 12:26:22;;;;;;;5.47;4.20;;;25.80;68.90;;;;;;6183764;23;20025;-74
2021/06/01 12:31:54;;;;;;;4.47;3.78;;;26.00;69.10;;;;;;6183391;23;20044;-75
2021/06/01 12:34:29;;;;;;;5.80;4.30;;;26.10;71.30;;;;;;6182386;23;20021;-75
2021/06/01 12:42:46;;;;;;;4.78;4.00;;;26.30;71.40;;;;;;6182856;23;20028;-76
2021/06/01 12:45:31;;;;;;;5.78;4.10;;;26.40;70.00;;;;;;6182702;23;20025;-75
2021/06/01 13:08:03;;;;;;;5.03;3.90;;;26.20;64.70;;;;;;6182341;23;20031;-74
2021/06/01 13:21:45;;;;;;;4.22;3.83;;;26.40;67.00;;;;;;6180911;23;20115;-76
2021/06/01 13:30:25;;;;;;;4.10;3.70;;;26.60;67.10;;;;;;6170374;23;20095;-75
2021/06/01 13:38:47;;;;;;;4.82;3.83;;;26.40;67.10;;;;;;6182918;23;20340;-77
2021/06/01 13:47:08;;;;;;;4.32;3.92;;;26.30;66.40;;;;;;6093347;23;20027;-76
2021/06/01 13:49:38;;;;;;;5.25;3.90;;;26.50;68.30;;;;;;6091853;23;20018;-76
2021/06/01 13:52:16;;;;;;;6.63;3.83;;;26.50;67.90;;;;;;6139385;23;20021;-75
2021/06/01 13:58:00;;;;;;;7.85;3.85;;;26.60;66.90;;;;;;6063435;23;20023;-77
2021/06/01 14:00:36;;;;;;;4.28;3.88;;;26.60;66.60;;;;;;6063427;23;20023;-76
2021/06/01 14:20:17;;;;;;;4.22;3.80;;;26.50;67.20;;;;;;6182323;23;20028;-74
2021/06/01 14:39:44;;;;;;;5.07;3.75;;;26.70;65.70;;;;;;6143629;23;20021;-74
2021/06/01 15:10:00;;;;;;;5.45;4.15;;;26.90;66.90;;;;;;6181179;23;20076;-76
2021/06/01 15:29:27;;;;;;;5.68;4.20;;;26.80;66.60;;;;;;6185253;23;20117;-76
2021/06/01 15:31:57;;;;;;;4.80;4.30;;;26.80;67.10;;;;;;6185635;23;20025;-76
2021/06/01 15:48:40;;;;;;;4.32;3.92;;;26.80;67.50;;;;;;6189572;23;20028;-80
2021/06/01 15:51:43;;;;;;;5.45;4.00;;;26.80;66.40;;;;;;6186196;23;20484;-78
2021/06/01 15:54:18;;;;;;;5.32;3.63;;;26.80;64.50;;;;;;6184476;23;20021;-77
2021/06/01 16:13:44;;;;;;;6.07;3.80;;;26.70;66.20;;;;;;6147507;23;20056;-79
2021/06/01 16:21:46;;;;;;;4.35;3.78;;;26.50;65.70;;;;;;6186200;23;20467;-79
2021/06/01 16:30:05;;;;;;;6.32;3.90;;;26.60;63.10;;;;;;6184333;23;20555;-79
2021/06/01 16:32:55;;;;;;;5.45;3.65;;;26.50;65.00;;;;;;6184116;23;20031;-79
2021/06/01 16:43:50;;;;;;;4.82;3.80;;;26.60;68.30;;;;;;6184040;23;20072;-78
2021/06/01 17:03:13;;;;;;;10.80;4.38;;;26.20;68.20;;;;;;6186076;23;20117;-77
2021/06/01 17:05:43;;;;;;;6.38;4.00;;;26.30;67.20;;;;;;6184659;23;20063;-79
2021/06/01 17:08:38;;;;;;;6.35;4.40;;;26.30;68.50;;;;;;6184893;23;20403;-78
2021/06/01 17:11:14;;;;;;;4.30;3.90;;;26.30;68.80;;;;;;6194427;23;20092;-80
2021/06/01 17:13:48;;;;;;;4.25;3.83;;;26.20;68.50;;;;;;6197217;23;20017;-80
2021/06/01 17:16:28;;;;;;;5.03;4.05;;;26.20;70.10;;;;;;6196641;23;20067;-80
2021/06/01 17:22:06;;;;;;;3.92;3.50;;;26.20;71.40;;;;;;6173893;23;20013;-81
2021/06/01 17:35:39;;;;;;;4.53;3.80;;;25.80;70.00;;;;;;6197695;23;20035;-80
2021/06/01 17:38:06;;;;;;;6.78;4.10;;;25.80;70.30;;;;;;6199381;23;20032;-80
2021/06/01 17:40:33;;;;;;;5.50;3.90;;;25.70;71.20;;;;;;6203437;23;20009;-80
2021/06/01 17:43:06;;;;;;;5.00;4.07;;;25.70;71.50;;;;;;6205202;23;20060;-80
2021/06/01 17:45:33;;;;;;;;;;;25.60;71.10;;;;;;6199389;23;20396;-80
2021/06/01 17:48:03;;;;;;;6.22;4.13;;;25.60;71.70;;;;;;6198562;23;19923;-80
2021/06/01 17:50:29;;;;;;;3.80;3.50;;;25.50;72.00;;;;;;6197486;23;20021;-79
2021/06/01 17:53:01;;;;;;;7.32;3.80;;;25.60;72.00;;;;;;6197229;23;20024;-78
2021/06/01 17:55:32;;;;;;;4.53;4.10;;;25.50;72.40;;;;;;6190358;23;20158;-79
2021/06/01 17:57:59;;;;;;;4.30;3.90;;;25.50;72.20;;;;;;6191271;23;20021;-79
2021/06/01 18:00:28;;;;;;;8.63;3.92;;;25.40;73.60;;;;;;6193426;23;20013;-81
2021/06/01 18:02:54;;;;;;;6.20;4.35;;;25.40;73.60;;;;;;6197936;23;20084;-79
2021/06/01 18:05:34;;;;;;;6.43;4.03;;;25.40;74.50;;;;;;6198530;23;20134;-80
2021/06/01 18:08:06;;;;;;;6.68;4.15;;;25.40;74.50;;;;;;6196442;23;20071;-80
2021/06/01 18:29:54;;;;;;;5.65;4.13;;;25.00;74.90;;;;;;6192269;23;20048;-79
2021/06/01 19:02:18;;;;;;;5.38;4.10;;;24.10;75.00;;;;;;6199623;23;20043;-80
2021/06/01 19:21:34;;;;;;;6.63;4.43;;;23.50;75.70;;;;;;6192958;23;20097;-80
2021/06/01 19:24:22;;;;;;;7.13;4.50;;;23.40;74.70;;;;;;6194313;23;20028;-81
2021/06/01 19:51:11;;;;;;;5.68;4.15;;;23.00;76.20;;;;;;6194735;23;20140;-79